Flight Track Log - Related Links

Times and Time Zones

All times are in EDT time to prevent confusion due to time zone crossing. See the AAL808 flight status page for this flight to view local times or setup timezone preferences in your user account.

Time Position Orientation Groundspeed Altitude Reporting Facility
EDT Latitude Longitude Course Direction KTS MPH feet Rate Location/Type
Sun 10:13:15 AM 38.7828 -104.6827 23° Northeast  Level FlightAware Approximate
Sun 10:14:15 AM 38.7036 -104.5839 351° North  Level FlightAware Approximate
Sun 10:15:15 AM 38.6114 -104.5064 342° North  Level FlightAware Approximate
Sun 10:16:35 AM 38.8936 -104.6219 138° Southeast 253 291 11,700  Level Denver Center
Sun 10:17:36 AM 38.8383 -104.5578 149° Southeast 280 322 13,100 1,707 Climbing Denver Center
Sun 10:18:38 AM 38.7467 -104.4858 148° Southeast 349 402 15,200 2,032 Climbing Denver Center
Sun 10:19:40 AM 38.6622 -104.4172 147° Southeast 371 427 17,300 2,032 Climbing Denver Center
Sun 10:20:42 AM 38.5742 -104.3433 148° Southeast 392 451 19,400 2,146 Climbing Denver Center
Sun 10:21:43 AM 38.4664 -104.2572 148° Southeast 405 466 21,700 2,146 Climbing Denver Center
Sun 10:22:45 AM 38.3714 -104.1828 151° Southeast 414 476 23,800 1,935 Climbing Denver Center
Sun 10:23:47 AM 38.2561 -104.1011 159° South 420 483 25,700 1,210 Climbing Denver Center
Sun 10:24:49 AM 38.1494 -104.0503 158° South 427 491 26,300 1,065 Climbing Denver Center
Sun 10:25:51 AM 38.0269 -103.9869 158° South 425 489 27,900 1,694 Climbing Denver Center
Sun 10:26:53 AM 37.9189 -103.9322 158° South 432 497 29,800 1,403 Climbing Denver Center
Sun 10:27:55 AM 37.8131 -103.8786 158° South 427 491 30,800 677 Climbing Denver Center
Sun 10:28:57 AM 37.6900 -103.8164 158° South 423 487 31,200 726 Climbing Denver Center
Sun 10:29:59 AM 37.5833 -103.7622 158° South 423 487 32,300 871 Climbing Denver Center
Sun 10:31:01 AM 37.4586 -103.7003 158° South 425 489 33,000 339 Climbing Denver Center
Sun 10:32:03 AM 37.3531 -103.6478 156° South 423 487 33,000  Level Denver Center
Sun 10:33:05 AM 37.2489 -103.5897 143° Southeast 425 489 33,000  Level Denver Center
Sun 10:34:07 AM 37.1383 -103.4839 142° Southeast 446 513 33,000  Level Denver Center
Sun 10:35:09 AM 37.0431 -103.3922 142° Southeast 447 514 33,000  Level Denver Center
Sun 10:36:11 AM 36.9331 -103.2867 130° Southeast 447 514 33,000  Level Denver Center
Sun 10:37:42 AM 36.8158 -103.1136 126° Southeast 456 525 33,000  Level Albuquerque Center
Sun 10:38:44 AM 36.7306 -102.9653 126° Southeast 469 540 33,000  Level Albuquerque Center
Sun 10:39:46 AM 36.6564 -102.8389 126° Southeast 470 541 33,000  Level Albuquerque Center
Sun 10:40:48 AM 36.5817 -102.7103 126° Southeast 471 542 33,000  Level Albuquerque Center
Sun 10:41:50 AM 36.5058 -102.5803 126° Southeast 467 537 33,000  Level Albuquerque Center
Sun 10:42:52 AM 36.4150 -102.4239 126° Southeast 465 535 33,000  Level Albuquerque Center
Sun 10:43:54 AM 36.3394 -102.2953 126° Southeast 463 533 33,000  Level Albuquerque Center
Sun 10:44:56 AM 36.2628 -102.1656 126° Southeast 464 534 33,000  Level Albuquerque Center
Sun 10:45:58 AM 36.1872 -102.0372 126° Southeast 462 532 33,000  Level Albuquerque Center
Sun 10:47:00 AM 36.1100 -101.9081 126° Southeast 463 533 33,000  Level Albuquerque Center
Sun 10:48:02 AM 36.0333 -101.7781 126° Southeast 465 535 33,000  Level Albuquerque Center
Sun 10:49:04 AM 35.9417 -101.6211 127° Southeast 466 536 33,000  Level Albuquerque Center
Sun 10:50:06 AM 35.8642 -101.4953 126° Southeast 462 532 33,000  Level Albuquerque Center
Sun 10:51:08 AM 35.7889 -101.3692 126° Southeast 457 526 33,000  Level Albuquerque Center
Sun 10:52:10 AM 35.7131 -101.2428 126° Southeast 456 525 33,000  Level Albuquerque Center
Sun 10:53:12 AM 35.6372 -101.1167 127° Southeast 455 524 33,000  Level Albuquerque Center
Sun 10:54:15 AM 35.5603 -100.9922 127° Southeast 454 522 33,000  Level Albuquerque Center
Sun 10:55:17 AM 35.4833 -100.8661 127° Southeast 457 526 33,000  Level Albuquerque Center
Sun 10:56:19 AM 35.4072 -100.7417 127° Southeast 456 525 33,000  Level Albuquerque Center
Sun 10:57:21 AM 35.3203 -100.6011 127° Southeast 454 522 33,000  Level Albuquerque Center
Sun 10:58:23 AM 35.2444 -100.4781 127° Southeast 453 521 33,000  Level Albuquerque Center
Sun 10:59:25 AM 35.1683 -100.3558 127° Southeast 454 522 33,000  Level Albuquerque Center
Sun 11:00:27 AM 35.0919 -100.2336 127° Southeast 453 521 33,000  Level Albuquerque Center
Sun 11:01:30 AM 35.0006 -100.0878 127° Southeast 452 520 33,000  Level Albuquerque Center
Sun 11:02:32 AM 34.9247 -99.9650 128° Southeast 453 521 33,000  Level Albuquerque Center
Sun 11:03:34 AM 34.8489 -99.8447 127° Southeast 451 519 33,000  Level Albuquerque Center
Sun 11:04:36 AM 34.7725 -99.7231 128° Southeast 452 520 33,000  Level Albuquerque Center
Sun 11:05:35 AM 34.6944 -99.6031 127° Southeast 455 524 33,000  Level Fort Worth Center
Sun 11:06:35 AM 34.6172 -99.4800 128° Southeast 455 524 33,000  Level Fort Worth Center
Sun 11:07:35 AM 34.5400 -99.3597 128° Southeast 455 524 33,000  Level Fort Worth Center
Sun 11:08:35 AM 34.4644 -99.2422 128° Southeast 455 524 33,000 -650 Level Fort Worth Center
Sun 11:09:35 AM 34.3869 -99.1222 127° Southeast 455 524 31,700 -1,500 Descending Fort Worth Center
Sun 11:10:35 AM 34.3114 -99.0000 130° Southeast 455 524 30,000 -1,700 Descending Fort Worth Center
Sun 11:11:35 AM 34.2314 -98.8831 128° Southeast 455 524 28,300 -1,700 Descending Fort Worth Center
Sun 11:12:35 AM 34.1514 -98.7611 128° Southeast 455 524 26,600 -1,700 Descending Fort Worth Center
Sun 11:13:35 AM 34.0733 -98.6422 129° Southeast 452 520 24,900 -1,300 Descending Fort Worth Center
Sun 11:14:35 AM 33.9992 -98.5308 128° Southeast 440 506 24,000 -450 Descending Fort Worth Center
Sun 11:15:35 AM 33.9250 -98.4172 129° Southeast 430 495 24,000  Level Fort Worth Center
Sun 11:16:35 AM 33.8447 -98.2964 128° Southeast 425 489 24,000 -500 Level Fort Worth Center
Sun 11:17:35 AM 33.7722 -98.1856 128° Southeast 431 496 23,000 -1,750 Descending Fort Worth Center
Sun 11:18:35 AM 33.6978 -98.0725 129° Southeast 426 490 20,500 -2,200 Descending Fort Worth Center
Sun 11:19:35 AM 33.6294 -97.9697 128° Southeast 415 478 18,600 -2,250 Descending Fort Worth Center
Sun 11:20:35 AM 33.5653 -97.8697 132° Southeast 395 455 16,000 -3,000 Descending Fort Worth Center
Sun 11:21:35 AM 33.4967 -97.7797 135° Southeast 363 418 12,600 -2,400 Descending Fort Worth Center
Sun 11:22:35 AM 33.4342 -97.7047 132° Southeast 336 387 11,200 -1,600 Descending Fort Worth Center
Sun 11:23:35 AM 33.3800 -97.6325 135° Southeast 298 343 9,400 -1,650 Descending Fort Worth Center
Sun 11:24:35 AM 33.3258 -97.5675 135° Southeast 284 327 7,900 -1,450 Descending Fort Worth Center
Sun 11:25:35 AM 33.2717 -97.5028 134° Southeast 279 321 6,500 -1,350 Descending Fort Worth Center
Sun 11:26:35 AM 33.2194 -97.4383 135° Southeast 274 315 5,200 -1,000 Descending Fort Worth Center
Sun 11:27:35 AM 33.1672 -97.3761 132° Southeast 274 315 4,500 -600 Descending Fort Worth Center
Sun 11:28:35 AM 33.1256 -97.3217 134° Southeast 263 303 4,000 -300 Descending Fort Worth Center
Sun 11:29:35 AM 33.0711 -97.2547 134° Southeast 252 290 3,900 -100 Descending Fort Worth Center

Login

Don't have an account? Register now (free) for customized features, flight alerts, and more!